createdAt,value
2023-01-08T00:00:49.740Z,10.20
2023-01-08T00:03:51.631Z,11.73
2023-01-08T00:06:53.327Z,12.20
2023-01-08T00:09:55.145Z,12.83
2023-01-08T00:12:56.737Z,10.80
2023-01-08T00:16:02.562Z,11.03
2023-01-08T00:19:04.172Z,10.30
2023-01-08T00:22:05.769Z,10.20
2023-01-08T00:25:07.686Z,8.40
2023-01-08T00:28:09.524Z,20.70
2023-01-08T00:31:12.197Z,12.20
2023-01-08T00:34:13.821Z,12.30
2023-01-08T00:37:18.927Z,9.40
2023-01-08T00:40:20.530Z,9.90
2023-01-08T00:43:22.155Z,9.30
2023-01-08T00:46:23.872Z,9.57
2023-01-08T00:49:25.460Z,10.87
2023-01-08T00:52:27.016Z,9.87
2023-01-08T00:55:28.655Z,12.60
2023-01-08T00:58:30.778Z,10.13
2023-01-08T01:01:32.800Z,11.20
2023-01-08T01:04:34.559Z,8.90
2023-01-08T01:07:36.436Z,9.27
2023-01-08T01:10:41.052Z,8.97
2023-01-08T01:13:42.663Z,9.37
2023-01-08T01:16:44.367Z,10.00
2023-01-08T01:19:45.973Z,9.20
2023-01-08T01:22:47.635Z,8.83
2023-01-08T01:25:49.293Z,8.87
2023-01-08T01:28:52.234Z,9.17
2023-01-08T01:31:53.850Z,9.33
2023-01-08T01:34:55.442Z,8.53
2023-01-08T01:37:57.016Z,8.23
2023-01-08T01:40:58.867Z,9.33
2023-01-08T01:44:20.451Z,8.57
2023-01-08T01:47:24.985Z,8.80
2023-01-08T01:50:29.148Z,8.13
2023-01-08T01:53:32.537Z,9.00
2023-01-08T01:56:34.185Z,8.90
2023-01-08T01:59:35.923Z,9.57
2023-01-08T02:02:37.650Z,8.97
2023-01-08T02:05:54.728Z,8.23
2023-01-08T02:08:56.555Z,9.63
2023-01-08T02:12:16.583Z,9.43
2023-01-08T02:15:24.168Z,9.43
2023-01-08T02:18:29.451Z,11.03
2023-01-08T02:21:31.129Z,9.53
2023-01-08T02:24:51.420Z,10.03
2023-01-08T02:27:54.797Z,10.33
2023-01-08T02:30:57.030Z,9.10
2023-01-08T02:33:59.020Z,9.13
2023-01-08T02:37:01.179Z,8.37
2023-01-08T02:40:18.952Z,8.53
2023-01-08T02:43:28.663Z,10.03
2023-01-08T02:46:32.502Z,11.10
2023-01-08T02:49:36.988Z,10.20
2023-01-08T02:52:42.410Z,8.83
2023-01-08T02:55:50.034Z,9.03
2023-01-08T02:58:52.957Z,10.20
2023-01-08T03:01:54.736Z,13.10
2023-01-08T03:05:00.059Z,10.50
2023-01-08T03:08:02.021Z,13.33
2023-01-08T03:11:05.465Z,11.23
2023-01-08T03:14:12.365Z,11.17
2023-01-08T03:17:19.695Z,11.00
2023-01-08T03:20:22.950Z,11.07
2023-01-08T03:23:26.734Z,12.77
2023-01-08T03:26:29.510Z,11.10
2023-01-08T03:29:31.824Z,9.17
2023-01-08T03:32:33.973Z,11.27
2023-01-08T03:35:37.558Z,8.90
2023-01-08T03:38:42.733Z,8.40
2023-01-08T03:41:44.523Z,9.17
2023-01-08T03:44:46.265Z,8.70
2023-01-08T03:47:48.807Z,9.13
2023-01-08T03:50:50.475Z,8.43
2023-01-08T03:53:53.470Z,9.83
2023-01-08T03:56:55.087Z,9.87
2023-01-08T03:59:56.911Z,11.73
2023-01-08T04:02:58.592Z,11.03
2023-01-08T04:06:00.654Z,11.30
2023-01-08T04:09:02.435Z,11.07
2023-01-08T04:12:04.204Z,12.00
2023-01-08T04:15:06.165Z,10.70
2023-01-08T04:18:07.839Z,11.20
2023-01-08T04:21:09.518Z,10.27
2023-01-08T04:24:11.858Z,10.17
2023-01-08T04:27:13.523Z,10.53
2023-01-08T04:30:15.137Z,9.23
2023-01-08T04:33:16.998Z,9.33
2023-01-08T04:36:18.643Z,9.50
2023-01-08T04:39:20.217Z,8.73
2023-01-08T04:42:21.881Z,9.53
2023-01-08T04:45:23.542Z,9.63
2023-01-08T04:48:25.296Z,10.43
2023-01-08T04:51:27.010Z,11.43
2023-01-08T04:54:28.559Z,11.10
2023-01-08T04:57:30.161Z,11.13
2023-01-08T05:00:31.844Z,12.20
2023-01-08T05:03:33.552Z,12.03
2023-01-08T05:06:35.249Z,10.63
2023-01-08T05:09:36.932Z,13.00
2023-01-08T05:12:38.615Z,14.70
2023-01-08T05:15:40.309Z,14.77
2023-01-08T05:18:41.975Z,14.27
2023-01-08T05:21:43.555Z,15.13
2023-01-08T05:24:45.131Z,13.63
2023-01-08T05:27:47.205Z,17.77
2023-01-08T05:30:49.469Z,15.57
2023-01-08T05:33:51.613Z,16.53
2023-01-08T05:36:54.657Z,17.83
2023-01-08T05:39:56.368Z,16.00
2023-01-08T05:42:59.590Z,15.20
2023-01-08T05:46:02.022Z,10.00
2023-01-08T05:49:03.639Z,12.33
2023-01-08T05:52:05.247Z,13.10
2023-01-08T05:55:07.000Z,12.23
2023-01-08T05:58:08.687Z,12.27
2023-01-08T06:01:11.648Z,10.90
2023-01-08T06:04:13.521Z,8.33
2023-01-08T06:07:15.366Z,10.37
2023-01-08T06:10:17.083Z,10.27
2023-01-08T06:13:18.628Z,11.97
2023-01-08T06:16:21.196Z,16.40
2023-01-08T06:19:22.933Z,19.27
2023-01-08T06:22:24.603Z,20.70
2023-01-08T06:25:26.346Z,17.60
2023-01-08T06:28:27.992Z,17.63
2023-01-08T06:31:29.719Z,18.67
2023-01-08T06:34:31.518Z,18.90
2023-01-08T06:37:33.109Z,18.97
2023-01-08T06:40:34.786Z,20.43
2023-01-08T06:43:37.156Z,23.67
2023-01-08T06:46:40.485Z,21.40
2023-01-08T06:49:42.105Z,19.60
2023-01-08T06:52:43.776Z,20.10
2023-01-08T06:55:45.375Z,18.77
2023-01-08T06:58:47.069Z,19.33
2023-01-08T07:01:49.081Z,17.60
2023-01-08T07:04:50.906Z,19.70
2023-01-08T07:07:52.606Z,19.20
2023-01-08T07:10:54.232Z,19.47
2023-01-08T07:13:56.018Z,20.57
2023-01-08T07:16:57.642Z,20.77
2023-01-08T07:19:59.286Z,19.87
2023-01-08T07:23:10.888Z,21.63
2023-01-08T07:26:12.505Z,25.80
2023-01-08T07:29:14.082Z,30.27
2023-01-08T07:32:15.731Z,29.33
2023-01-08T07:35:17.431Z,30.70
2023-01-08T07:38:19.171Z,32.63
2023-01-08T07:41:20.824Z,26.90
2023-01-08T07:44:22.424Z,30.57
2023-01-08T07:47:23.991Z,29.77
2023-01-08T07:50:26.292Z,31.00
2023-01-08T07:53:27.938Z,32.80
2023-01-08T07:56:29.556Z,33.70
2023-01-08T07:59:31.185Z,33.40
2023-01-08T08:02:33.903Z,41.37
2023-01-08T08:05:35.650Z,37.67
2023-01-08T08:08:39.439Z,35.93
2023-01-08T08:11:41.870Z,32.00
2023-01-08T08:14:43.502Z,26.47
2023-01-08T08:17:46.324Z,22.03
2023-01-08T08:20:49.448Z,24.07
2023-01-08T08:23:51.072Z,26.43
2023-01-08T08:26:54.322Z,24.70
2023-01-08T08:29:55.900Z,21.67
2023-01-08T08:32:58.990Z,19.90
2023-01-08T08:36:00.641Z,21.00
2023-01-08T08:39:02.287Z,23.50
2023-01-08T08:42:03.927Z,21.83
2023-01-08T08:45:05.912Z,22.20
2023-01-08T08:48:08.264Z,23.57
2023-01-08T08:51:09.962Z,26.17
2023-01-08T08:54:11.726Z,26.17
2023-01-08T08:57:13.333Z,26.70
2023-01-08T09:00:15.343Z,26.80
2023-01-08T09:03:17.116Z,28.23
2023-01-08T09:06:18.845Z,29.93
2023-01-08T09:09:20.478Z,26.73
2023-01-08T09:12:22.126Z,28.07
2023-01-08T09:15:23.741Z,25.70
2023-01-08T09:18:25.354Z,23.90
2023-01-08T09:21:28.834Z,22.87
2023-01-08T09:24:32.428Z,21.33
2023-01-08T09:27:34.078Z,23.13
2023-01-08T09:30:35.781Z,22.67
2023-01-08T09:33:37.582Z,21.77
2023-01-08T09:36:39.257Z,19.23
2023-01-08T09:39:42.586Z,15.77
2023-01-08T09:42:51.815Z,13.20
2023-01-08T09:45:56.106Z,12.87
2023-01-08T09:48:59.610Z,11.07
2023-01-08T09:52:01.186Z,12.43
2023-01-08T09:55:02.995Z,14.27
2023-01-08T09:58:04.862Z,16.47
2023-01-08T10:01:07.152Z,16.13
2023-01-08T10:04:19.784Z,10.80
2023-01-08T10:07:22.915Z,11.63
2023-01-08T10:10:31.770Z,13.77
2023-01-08T10:13:34.539Z,10.00
2023-01-08T10:16:37.990Z,9.37
2023-01-08T10:19:39.641Z,9.50
2023-01-08T10:22:41.545Z,9.70
2023-01-08T10:25:52.740Z,13.50
2023-01-08T10:29:05.701Z,11.13
2023-01-08T10:32:18.097Z,14.87
2023-01-08T10:35:21.247Z,20.87
2023-01-08T10:38:46.290Z,19.53
2023-01-08T10:41:48.752Z,14.77
2023-01-08T10:44:53.432Z,23.50
2023-01-08T10:47:57.174Z,21.63
2023-01-08T10:51:07.015Z,14.13
2023-01-08T10:54:21.175Z,11.40
2023-01-08T10:57:22.809Z,21.67
2023-01-08T11:00:25.854Z,12.07
2023-01-08T11:03:29.255Z,18.50
2023-01-08T11:06:37.465Z,12.93
2023-01-08T11:09:41.448Z,16.23
2023-01-08T11:12:43.178Z,12.63
2023-01-08T11:15:44.904Z,12.07
2023-01-08T11:18:47.970Z,10.73
2023-01-08T11:21:56.836Z,5.17
2023-01-08T11:24:58.511Z,3.00
2023-01-08T11:28:02.370Z,2.60
2023-01-08T11:31:11.849Z,2.20
2023-01-08T11:34:28.897Z,2.27
2023-01-08T11:37:33.743Z,2.23
2023-01-08T11:40:41.592Z,1.90
2023-01-08T11:43:55.264Z,2.10
2023-01-08T11:47:15.881Z,2.60
2023-01-08T11:50:26.738Z,2.47
2023-01-08T11:53:36.711Z,2.23
2023-01-08T11:56:56.769Z,2.30
2023-01-08T12:00:16.962Z,2.33
2023-01-08T12:03:40.742Z,2.80
2023-01-08T12:06:47.914Z,2.40
2023-01-08T12:10:04.493Z,2.50
2023-01-08T12:13:21.308Z,2.80
2023-01-08T12:16:38.929Z,3.57
2023-01-08T12:19:46.876Z,2.93
2023-01-08T12:22:58.190Z,2.97
2023-01-08T12:25:59.856Z,2.80
2023-01-08T12:29:07.478Z,2.77
2023-01-08T12:32:12.194Z,2.63
2023-01-08T12:35:25.441Z,2.70
2023-01-08T12:38:30.433Z,2.90
2023-01-08T12:41:33.870Z,3.33
2023-01-08T12:44:36.921Z,2.67
2023-01-08T12:47:40.182Z,3.40
2023-01-08T12:50:49.496Z,3.03
2023-01-08T12:53:54.272Z,2.30
2023-01-08T12:57:00.433Z,3.30
2023-01-08T13:00:02.135Z,2.73
2023-01-08T13:03:05.240Z,2.80
2023-01-08T13:06:08.326Z,3.00
2023-01-08T13:09:19.851Z,3.00
2023-01-08T13:12:33.981Z,3.27
2023-01-08T13:15:36.098Z,3.57
2023-01-08T13:18:37.980Z,4.10
2023-01-08T13:21:43.237Z,3.40
2023-01-08T13:24:45.074Z,3.30
2023-01-08T13:27:47.055Z,4.17
2023-01-08T13:30:49.977Z,3.10
2023-01-08T13:33:54.573Z,3.00
2023-01-08T13:36:57.382Z,3.13
2023-01-08T13:39:58.970Z,5.53
2023-01-08T13:43:00.719Z,3.70
2023-01-08T13:46:02.362Z,7.10
2023-01-08T13:49:08.372Z,7.10
2023-01-08T13:52:28.821Z,8.30
2023-01-08T13:55:33.335Z,5.13
2023-01-08T13:58:40.865Z,20.73
2023-01-08T14:01:51.668Z,7.03
2023-01-08T14:04:54.007Z,5.00
2023-01-08T14:07:55.932Z,5.10
2023-01-08T14:10:57.593Z,6.80
2023-01-08T14:13:59.312Z,7.23
2023-01-08T14:17:02.885Z,5.10
2023-01-08T14:20:09.067Z,7.40
2023-01-08T14:23:12.244Z,5.57
2023-01-08T14:26:35.694Z,5.60
2023-01-08T14:29:37.450Z,5.40
2023-01-08T14:32:42.897Z,4.00
2023-01-08T14:35:44.806Z,4.80
2023-01-08T14:38:50.842Z,5.03
2023-01-08T14:42:13.286Z,5.00
2023-01-08T14:45:26.770Z,5.30
2023-01-08T14:48:40.478Z,5.57
2023-01-08T14:51:42.193Z,6.43
2023-01-08T14:54:45.719Z,7.83
2023-01-08T14:57:48.673Z,11.27
2023-01-08T15:00:56.227Z,18.47
2023-01-08T15:04:05.501Z,17.73
2023-01-08T15:07:22.301Z,14.83
2023-01-08T15:10:27.013Z,14.27
2023-01-08T15:13:35.743Z,29.63
2023-01-08T15:16:42.735Z,20.97
2023-01-08T15:19:50.181Z,23.97
2023-01-08T15:22:51.900Z,28.77
2023-01-08T15:25:54.168Z,29.43
2023-01-08T15:29:04.417Z,32.03
2023-01-08T15:32:09.143Z,30.13
2023-01-08T15:35:15.607Z,41.63
2023-01-08T15:38:18.034Z,35.20
2023-01-08T15:41:39.333Z,31.87
2023-01-08T15:44:40.962Z,45.93
2023-01-08T15:47:42.691Z,41.17
2023-01-08T15:50:44.575Z,46.50
2023-01-08T15:53:49.376Z,41.67
2023-01-08T15:56:51.239Z,49.73
2023-01-08T15:59:52.948Z,50.87
2023-01-08T16:02:55.581Z,60.63
2023-01-08T16:05:57.238Z,50.20
2023-01-08T16:09:00.458Z,60.77
2023-01-08T16:12:02.268Z,66.77
2023-01-08T16:15:04.316Z,52.50
2023-01-08T16:18:05.992Z,57.17
2023-01-08T16:21:08.168Z,54.20
2023-01-08T16:24:12.380Z,73.07
2023-01-08T16:27:13.989Z,52.43
2023-01-08T16:30:15.937Z,54.03
2023-01-08T16:33:17.603Z,56.40
2023-01-08T16:36:19.343Z,55.90
2023-01-08T16:39:22.060Z,62.27
2023-01-08T16:42:26.031Z,73.40
2023-01-08T16:45:27.765Z,66.53
2023-01-08T16:48:29.482Z,72.43
2023-01-08T16:51:31.116Z,87.80
2023-01-08T16:54:33.657Z,74.50
2023-01-08T16:57:35.387Z,71.13
2023-01-08T17:00:37.785Z,88.00
2023-01-08T17:03:39.498Z,82.80
2023-01-08T17:06:41.248Z,76.37
2023-01-08T17:09:43.000Z,69.50
2023-01-08T17:12:46.379Z,83.53
2023-01-08T17:15:48.591Z,82.67
2023-01-08T17:18:52.923Z,86.10
2023-01-08T17:21:56.778Z,98.20
2023-01-08T17:24:58.665Z,68.60
2023-01-08T17:28:00.273Z,94.03
2023-01-08T17:31:09.501Z,66.10
2023-01-08T17:34:12.489Z,73.07
2023-01-08T17:37:14.151Z,65.67
2023-01-08T17:40:15.899Z,73.17
2023-01-08T17:43:17.592Z,72.43
2023-01-08T17:46:19.345Z,60.13
2023-01-08T17:49:21.140Z,61.53
2023-01-08T17:52:24.105Z,62.57
2023-01-08T17:55:28.998Z,61.73
2023-01-08T17:58:30.581Z,55.63
2023-01-08T18:01:34.884Z,52.60
2023-01-08T18:04:36.725Z,56.47
2023-01-08T18:07:42.423Z,54.50
2023-01-08T18:10:43.988Z,56.10
2023-01-08T18:13:48.076Z,56.37
2023-01-08T18:16:50.043Z,69.60
2023-01-08T18:19:51.610Z,66.27
2023-01-08T18:22:54.286Z,65.43
2023-01-08T18:25:56.081Z,59.43
2023-01-08T18:28:57.762Z,61.57
2023-01-08T18:31:59.883Z,59.10
2023-01-08T18:35:03.743Z,58.47
2023-01-08T18:38:05.396Z,63.70
2023-01-08T18:41:09.275Z,53.13
2023-01-08T18:44:11.011Z,58.27
2023-01-08T18:47:15.862Z,53.17
2023-01-08T18:50:17.514Z,52.27
2023-01-08T18:53:19.132Z,51.77
2023-01-08T18:56:22.228Z,52.70
2023-01-08T18:59:24.562Z,51.80
2023-01-08T19:02:27.890Z,48.93
2023-01-08T19:05:29.832Z,48.23
2023-01-08T19:08:31.427Z,50.37
2023-01-08T19:11:33.079Z,52.00
2023-01-08T19:14:35.105Z,50.33
2023-01-08T19:17:36.699Z,48.97
2023-01-08T19:20:46.334Z,49.73
2023-01-08T19:23:48.277Z,52.30
2023-01-08T19:26:50.303Z,47.90
2023-01-08T19:29:52.095Z,37.03
2023-01-08T19:32:53.748Z,29.03
2023-01-08T19:35:55.386Z,25.23
2023-01-08T19:38:57.508Z,9.90
2023-01-08T19:42:17.722Z,13.20
2023-01-08T19:45:19.380Z,11.13
2023-01-08T19:48:21.218Z,10.50
2023-01-08T19:51:22.972Z,11.27
2023-01-08T19:54:25.940Z,9.80
2023-01-08T19:57:27.973Z,10.50
2023-01-08T20:00:29.724Z,15.97
2023-01-08T20:03:31.300Z,13.00
2023-01-08T20:06:33.755Z,10.43
2023-01-08T20:09:35.445Z,11.30
2023-01-08T20:12:37.832Z,11.87
2023-01-08T20:15:39.523Z,11.40
2023-01-08T20:18:41.903Z,10.13
2023-01-08T20:21:43.505Z,11.80
2023-01-08T20:24:45.151Z,10.77
2023-01-08T20:27:46.741Z,9.60
2023-01-08T20:30:48.728Z,11.43
2023-01-08T20:33:50.365Z,9.50
2023-01-08T20:36:52.321Z,11.80
2023-01-08T20:39:54.040Z,12.27
2023-01-08T20:42:55.699Z,11.20
2023-01-08T20:45:57.362Z,11.40
2023-01-08T20:49:01.207Z,10.77
2023-01-08T20:52:02.882Z,12.47
2023-01-08T20:55:04.693Z,9.53
2023-01-08T20:58:06.296Z,12.30
2023-01-08T21:01:18.588Z,11.30
2023-01-08T21:04:20.385Z,11.87
2023-01-08T21:07:22.211Z,14.20
2023-01-08T21:10:23.943Z,15.20
2023-01-08T21:13:25.832Z,10.37
2023-01-08T21:16:28.780Z,11.87
2023-01-08T21:19:30.497Z,14.80
2023-01-08T21:22:32.129Z,16.17
2023-01-08T21:25:35.108Z,13.03
2023-01-08T21:28:37.118Z,13.97
2023-01-08T21:31:39.225Z,13.27
2023-01-08T21:34:40.939Z,18.50
2023-01-08T21:37:42.607Z,16.80
2023-01-08T21:40:44.312Z,12.60
2023-01-08T21:44:04.812Z,11.40
2023-01-08T21:47:08.037Z,9.33
2023-01-08T21:50:10.471Z,10.30
2023-01-08T21:53:30.645Z,11.73
2023-01-08T21:56:32.301Z,9.63
2023-01-08T21:59:34.583Z,9.63
2023-01-08T22:02:37.152Z,6.70
2023-01-08T22:05:38.781Z,11.33
2023-01-08T22:08:40.375Z,12.63
2023-01-08T22:11:41.973Z,9.67
2023-01-08T22:14:43.867Z,13.97
2023-01-08T22:17:45.463Z,11.87
2023-01-08T22:20:47.029Z,13.70
2023-01-08T22:23:48.763Z,13.87
2023-01-08T22:26:50.440Z,14.53
2023-01-08T22:29:52.054Z,13.80
2023-01-08T22:32:53.812Z,14.37
2023-01-08T22:35:57.221Z,14.53
2023-01-08T22:38:58.946Z,14.53
2023-01-08T22:42:00.666Z,15.60
2023-01-08T22:45:02.297Z,14.93
2023-01-08T22:48:04.999Z,14.53
2023-01-08T22:51:06.643Z,14.07
2023-01-08T22:54:08.296Z,11.73
2023-01-08T22:57:10.092Z,7.13
2023-01-08T23:00:11.974Z,5.77
2023-01-08T23:03:13.632Z,5.70
2023-01-08T23:06:16.567Z,5.27
2023-01-08T23:09:18.163Z,5.20
2023-01-08T23:12:20.041Z,5.27
2023-01-08T23:15:22.041Z,4.60
2023-01-08T23:18:23.609Z,5.50
2023-01-08T23:21:25.981Z,5.10
2023-01-08T23:24:29.972Z,4.97
2023-01-08T23:27:32.609Z,4.77
2023-01-08T23:30:34.294Z,5.60
2023-01-08T23:33:36.026Z,5.60
2023-01-08T23:36:37.776Z,5.30
2023-01-08T23:39:39.354Z,5.40
2023-01-08T23:42:40.971Z,5.57
2023-01-08T23:45:42.614Z,5.40
2023-01-08T23:48:44.572Z,5.60
2023-01-08T23:51:46.277Z,6.07
2023-01-08T23:54:47.887Z,5.73
2023-01-08T23:57:49.777Z,5.97
